Time;durP1;ratioP1;P1;durP2;ratioP2;P2;SDS_P1;SDS_P2;PMS_P1;PMS_P2;Temp;Humidity;BMP_temperature;BMP_pressure;BME280_temperature;BME280_humidity;BME280_pressure;Samples;Min_cycle;Max_cycle;Signal;HPM_P1;HPM_P2
2024/02/09 00:04:21;;;;;;;43.60;20.70;;;;;;;1.36;100.00;99113.50;4940167;57;1138918;-83
2024/02/09 00:09:26;;;;;;;40.33;18.60;;;;;;;1.34;100.00;99113.22;4939515;57;1138505;-82
2024/02/09 00:14:32;;;;;;;38.00;16.05;;;;;;;1.33;100.00;99115.45;4888397;58;1138494;-82
2024/02/09 00:19:38;;;;;;;39.73;18.43;;;;;;;1.33;100.00;99106.34;4807294;58;1138592;-84
2024/02/09 00:24:44;;;;;;;74.57;30.17;;;;;;;1.31;100.00;99111.64;4828070;59;1138630;-81
2024/02/09 00:29:50;;;;;;;32.13;15.47;;;;;;;1.33;100.00;99112.84;4890234;58;1138808;-82
2024/02/09 00:34:56;;;;;;;37.60;16.20;;;;;;;1.30;100.00;99104.75;4828533;58;1138702;-82
2024/02/09 00:40:04;;;;;;;42.83;15.20;;;;;;;1.28;100.00;99109.22;4865171;58;1138792;-83
2024/02/09 00:45:09;;;;;;;41.35;17.80;;;;;;;1.25;100.00;99110.70;4817070;59;1138814;-82
2024/02/09 00:50:17;;;;;;;61.03;23.67;;;;;;;1.21;100.00;99110.55;4834073;59;1138816;-82
2024/02/09 00:55:29;;;;;;;47.60;19.90;;;;;;;1.25;100.00;99118.52;4808374;59;1138874;-83
2024/02/09 01:00:33;;;;;;;79.53;26.07;;;;;;;1.31;100.00;99110.80;4829517;59;1138688;-81
2024/02/09 01:05:38;;;;;;;73.50;21.73;;;;;;;1.28;100.00;99110.98;4877078;58;1138750;-82
2024/02/09 01:10:44;;;;;;;45.23;18.30;;;;;;;1.22;100.00;99106.98;4921852;58;1139088;-81
2024/02/09 02:47:09;;;;;;;37.37;16.33;;;;;;;1.11;100.00;99048.23;4896795;58;1139438;-81
2024/02/09 03:08:25;;;;;;;50.12;17.60;;;;;;;1.17;100.00;99044.42;4858785;58;1138687;-82
2024/02/09 03:13:32;;;;;;;40.70;16.17;;;;;;;1.11;100.00;99033.91;4836815;58;1138988;-83
2024/02/09 03:18:39;;;;;;;36.90;14.67;;;;;;;1.07;100.00;99042.03;4851000;58;1138806;-82
2024/02/09 03:23:45;;;;;;;38.30;15.93;;;;;;;1.02;100.00;99020.19;4928049;58;1138429;-82
2024/02/09 03:28:52;;;;;;;40.10;14.70;;;;;;;0.96;100.00;99017.48;4914950;57;1138569;-83
2024/02/09 03:33:58;;;;;;;37.40;15.10;;;;;;;0.96;100.00;99032.27;4880596;58;1138967;-81
2024/02/09 03:39:05;;;;;;;39.93;14.57;;;;;;;0.96;100.00;99038.31;4725632;59;1138687;-81
2024/02/09 03:44:11;;;;;;;47.78;16.25;;;;;;;0.98;100.00;99040.35;4808863;59;1138839;-82
2024/02/09 03:49:17;;;;;;;42.15;13.90;;;;;;;1.03;100.00;99042.69;4841010;59;1138688;-82
2024/02/09 03:54:22;;;;;;;40.73;17.23;;;;;;;1.02;100.00;99034.50;4747139;59;1139356;-83
2024/02/09 03:59:30;;;;;;;50.50;18.30;;;;;;;0.94;100.00;99024.55;4872514;57;1138647;-82
2024/02/09 04:04:35;;;;;;;44.93;18.47;;;;;;;0.94;100.00;99030.22;4891754;58;1139459;-83
2024/02/09 04:09:41;;;;;;;32.83;12.37;;;;;;;0.96;100.00;99027.06;4886146;58;1138470;-83
2024/02/09 04:14:46;;;;;;;44.03;16.10;;;;;;;0.97;100.00;99011.81;4931716;57;1139198;-81
2024/02/09 04:19:53;;;;;;;30.97;14.50;;;;;;;0.95;100.00;99010.61;4926663;58;1138871;-82
2024/02/09 04:24:59;;;;;;;34.00;12.37;;;;;;;0.92;100.00;99000.38;4943586;58;1138649;-81
2024/02/09 04:30:06;;;;;;;33.67;12.33;;;;;;;0.92;100.00;98988.66;5007026;56;1138807;-81
2024/02/09 04:35:11;;;;;;;28.42;11.95;;;;;;;0.93;100.00;98987.73;5021752;57;1139378;-80
2024/02/09 04:40:19;;;;;;;26.33;10.75;;;;;;;0.92;100.00;98970.45;5043042;57;1139058;-78
2024/02/09 04:45:24;;;;;;;18.67;10.27;;;;;;;0.89;100.00;98972.43;5011827;57;1141398;-78
2024/02/09 04:50:30;;;;;;;24.17;11.13;;;;;;;0.87;100.00;98967.32;5003897;57;1138655;-78
2024/02/09 04:55:36;;;;;;;26.20;11.10;;;;;;;0.86;100.00;98964.34;5092377;56;1138487;-79
2024/02/09 05:00:42;;;;;;;17.47;10.33;;;;;;;0.89;100.00;98956.35;5025755;57;1138776;-78
2024/02/09 05:05:47;;;;;;;32.97;15.03;;;;;;;0.94;100.00;98958.64;4893578;58;1138941;-78
2024/02/09 05:10:53;;;;;;;50.13;19.97;;;;;;;0.94;100.00;98949.06;4917555;58;1139052;-78
2024/02/09 05:16:00;;;;;;;29.13;14.63;;;;;;;0.95;100.00;98936.89;4905063;58;1138787;-78
2024/02/09 05:21:05;;;;;;;18.17;10.50;;;;;;;0.89;100.00;98932.92;4871989;58;1138657;-78
2024/02/09 05:26:12;;;;;;;19.37;10.13;;;;;;;0.90;100.00;98932.47;4881522;58;1138865;-78
2024/02/09 05:31:22;;;;;;;19.40;10.13;;;;;;;0.91;100.00;98953.19;4939845;58;1138434;-78
2024/02/09 05:36:29;;;;;;;22.52;12.47;;;;;;;0.94;100.00;98953.44;4915338;58;1138900;-78
2024/02/09 05:41:35;;;;;;;20.67;7.83;;;;;;;0.95;100.00;98943.39;4908471;58;1138495;-79
2024/02/09 05:46:41;;;;;;;20.43;8.63;;;;;;;0.94;100.00;98943.02;4963321;58;1136661;-78
2024/02/09 05:51:47;;;;;;;12.83;7.13;;;;;;;0.91;100.00;98932.37;4948597;58;1136650;-78
2024/02/09 05:56:53;;;;;;;12.10;7.00;;;;;;;0.90;100.00;98916.84;4960685;58;1136865;-78
2024/02/09 06:02:00;;;;;;;14.57;7.70;;;;;;;0.92;100.00;98920.16;4876025;58;1136394;-78
2024/02/09 06:07:06;;;;;;;11.30;6.80;;;;;;;0.93;100.00;98907.05;4905170;58;1136523;-78
2024/02/09 06:12:13;;;;;;;16.23;8.43;;;;;;;0.93;100.00;98895.80;5014807;57;1136892;-79
2024/02/09 06:17:19;;;;;;;13.60;6.73;;;;;;;0.93;100.00;98897.94;5028494;57;1136763;-78
2024/02/09 06:22:25;;;;;;;11.97;6.47;;;;;;;0.94;100.00;98901.38;5000924;57;1136569;-78
2024/02/09 06:27:31;;;;;;;13.72;6.08;;;;;;;0.93;100.00;98899.70;5002709;57;1136898;-79
2024/02/09 06:32:37;;;;;;;12.60;6.20;;;;;;;0.93;100.00;98895.34;5024660;57;1137155;-79
2024/02/09 06:37:43;;;;;;;10.33;5.70;;;;;;;0.93;100.00;98902.31;5003938;57;1136607;-78
2024/02/09 06:42:48;;;;;;;16.43;7.90;;;;;;;0.93;100.00;98895.34;5004235;57;1136942;-78
2024/02/09 06:47:54;;;;;;;22.62;10.90;;;;;;;0.94;100.00;98893.11;4943597;57;1136646;-78
2024/02/09 06:53:00;;;;;;;21.03;7.97;;;;;;;0.93;100.00;98893.20;4936712;57;1138802;-78
2024/02/09 06:58:06;;;;;;;55.00;18.90;;;;;;;0.92;100.00;98900.17;5072607;56;1136650;-78
2024/02/09 07:03:17;;;;;;;21.17;9.43;;;;;;;0.95;100.00;98896.08;4962087;56;1138910;-78
2024/02/09 07:08:30;;;;;;;48.63;17.33;;;;;;;0.98;100.00;98897.66;4969353;58;1136612;-78
2024/02/09 07:13:34;;;;;;;;;;;;;;;0.98;100.00;98889.38;4958018;58;1138599;-78
2024/02/09 07:18:42;;;;;;;25.53;11.23;;;;;;;0.97;100.00;98898.13;4968371;58;971967;-78
2024/02/09 07:23:50;;;;;;;28.47;10.30;;;;;;;0.98;100.00;98887.24;5031289;57;1136919;-78
2024/02/09 07:28:57;;;;;;;32.43;14.83;;;;;;;0.96;100.00;98889.11;4990847;58;1138923;-78
2024/02/09 07:34:02;;;;;;;34.53;14.23;;;;;;;0.98;100.00;98882.03;5050578;58;1138438;-78
2024/02/09 07:39:09;;;;;;;27.62;12.98;;;;;;;0.96;100.00;98869.12;5071166;57;1138994;-78
2024/02/09 07:44:14;;;;;;;20.43;11.63;;;;;;;0.97;100.00;98861.68;5040228;57;1138894;-78
2024/02/09 07:49:22;;;;;;;32.03;13.50;;;;;;;0.95;100.00;98860.11;4973348;58;1138499;-78
2024/02/09 07:54:28;;;;;;;28.37;12.67;;;;;;;0.97;100.00;98862.14;4914717;58;1138754;-78
2024/02/09 07:59:34;;;;;;;29.07;12.03;;;;;;;0.98;100.00;98852.11;4913011;59;1138574;-78
2024/02/09 08:04:40;;;;;;;26.43;12.43;;;;;;;0.97;100.00;98851.27;4838714;59;1138593;-78
2024/02/09 08:09:45;;;;;;;28.63;14.20;;;;;;;0.96;100.00;98844.39;4949990;58;1138541;-78
2024/02/09 08:14:51;;;;;;;24.13;12.97;;;;;;;0.95;100.00;98842.72;5006114;58;1138567;-78
2024/02/09 08:19:57;;;;;;;28.67;14.20;;;;;;;0.96;100.00;98840.48;4975715;58;1138569;-78
2024/02/09 08:25:03;;;;;;;28.43;13.50;;;;;;;0.94;100.00;98831.11;4931119;59;1138960;-78
2024/02/09 08:30:10;;;;;;;44.45;24.77;;;;;;;0.96;100.00;98827.94;4877186;59;1141516;-78
2024/02/09 08:35:21;;;;;;;29.03;13.73;;;;;;;0.94;100.00;98820.23;4751742;61;21203;-78
2024/02/09 08:41:18;;;;;;;32.67;14.23;;;;;;;0.93;100.00;98812.05;4828085;59;1134820;-78
2024/02/09 08:46:55;;;;;;;57.07;26.63;;;;;;;0.92;100.00;98812.15;4415477;65;1138572;-78
2024/02/09 08:52:22;;;;;;;51.27;22.53;;;;;;;0.88;100.00;98810.23;4456907;65;1138928;-78
2024/02/09 08:58:14;;;;;;;39.17;17.93;;;;;;;0.88;100.00;98805.50;4414664;65;1138691;-78
2024/02/09 09:03:46;;;;;;;55.03;24.20;;;;;;;0.85;100.00;98788.78;4417392;63;1139308;-78
2024/02/09 09:09:24;;;;;;;45.85;22.27;;;;;;;0.82;100.00;98785.91;4428688;63;1138997;-78
2024/02/09 09:14:40;;;;;;;46.50;22.20;;;;;;;0.82;100.00;98772.06;4173564;66;1139061;-78
2024/02/09 09:20:13;;;;;;;47.43;22.20;;;;;;;0.81;100.00;98766.02;4154032;68;1138787;-78
2024/02/09 09:26:01;;;;;;;61.73;31.00;;;;;;;0.81;100.00;98759.52;3933415;73;1139110;-78
2024/02/09 09:37:28;;;;;;;44.63;23.30;;;;;;;0.76;100.00;98726.95;4162197;68;1138986;-78
2024/02/09 09:43:17;;;;;;;54.17;25.70;;;;;;;0.75;100.00;98731.31;4204101;67;1138912;-78
2024/02/09 09:54:54;;;;;;;;;;;;;;;0.74;100.00;98726.21;4217244;67;1137922;-78
2024/02/09 10:00:40;;;;;;;85.70;33.87;;;;;;;0.74;100.00;98720.54;4196205;68;972007;-78
2024/02/09 10:06:16;;;;;;;28.37;16.67;;;;;;;0.76;100.00;98722.58;4186551;67;1136806;-78
2024/02/09 10:11:51;;;;;;;34.00;18.60;;;;;;;0.76;100.00;98692.66;4378724;64;1138891;-78
2024/02/09 10:17:28;;;;;;;32.17;18.07;;;;;;;0.79;100.00;98692.42;4368256;64;1138908;-78
2024/02/09 10:22:42;;;;;;;45.00;29.83;;;;;;;0.76;100.00;98693.95;4326427;64;1138997;-78
2024/02/09 10:27:51;;;;;;;29.87;16.50;;;;;;;0.78;100.00;98684.72;4496009;62;1138660;-78
2024/02/09 10:33:02;;;;;;;29.42;16.67;;;;;;;0.78;100.00;98671.24;4485532;62;1138498;-78
2024/02/09 10:38:08;;;;;;;30.77;15.83;;;;;;;0.83;100.00;98670.94;4657442;61;1138890;-78
2024/02/09 10:43:15;;;;;;;31.97;16.77;;;;;;;0.85;100.00;98663.41;4603959;61;1138835;-79
2024/02/09 10:48:25;;;;;;;28.80;15.53;;;;;;;0.86;100.00;98657.73;4686360;59;1138776;-78
2024/02/09 10:53:35;;;;;;;31.80;16.60;;;;;;;0.88;100.00;98634.58;4834033;58;1138590;-78
2024/02/09 10:58:44;;;;;;;26.68;15.75;;;;;;;0.87;100.00;98622.97;4851107;58;1138638;-78
2024/02/09 11:03:52;;;;;;;32.90;17.07;;;;;;;0.89;100.00;98621.09;4878650;59;1138631;-79
2024/02/09 11:08:58;;;;;;;29.70;17.43;;;;;;;0.90;100.00;98615.79;4843614;58;1138425;-79
2024/02/09 11:14:10;;;;;;;29.23;16.20;;;;;;;0.91;100.00;98616.16;4869665;58;1139003;-79
2024/02/09 11:19:18;;;;;;;27.90;15.07;;;;;;;0.93;100.00;98607.75;4925748;58;1138978;-79
2024/02/09 11:24:28;;;;;;;30.10;16.63;;;;;;;0.96;100.00;98593.23;4946483;58;1138565;-79
2024/02/09 11:29:34;;;;;;;35.83;17.97;;;;;;;0.96;100.00;98584.59;4890220;57;1138659;-79
2024/02/09 11:34:39;;;;;;;27.30;16.90;;;;;;;0.97;100.00;98592.76;4898475;58;1138715;-79
2024/02/09 11:39:45;;;;;;;33.90;20.20;;;;;;;0.96;100.00;98578.91;5010641;57;1138875;-79
2024/02/09 11:44:53;;;;;;;45.97;26.10;;;;;;;0.95;100.00;98566.00;4932553;57;1138775;-79
2024/02/09 11:49:59;;;;;;;38.07;23.60;;;;;;;0.98;100.00;98573.14;4903430;57;1138809;-79
2024/02/09 11:55:05;;;;;;;29.67;18.03;;;;;;;0.99;100.00;98568.30;4917907;58;1138902;-79
2024/02/09 12:00:13;;;;;;;41.28;20.27;;;;;;;1.02;100.00;98556.38;4950169;58;1138592;-78
2024/02/09 12:05:19;;;;;;;65.07;32.60;;;;;;;1.01;100.00;98550.80;4927761;58;1138644;-78
2024/02/09 12:10:25;;;;;;;38.43;21.73;;;;;;;0.99;100.00;98550.08;4931822;58;1138786;-78
2024/02/09 12:15:31;;;;;;;29.63;16.63;;;;;;;1.07;100.00;98563.84;4979174;58;1138960;-78
2024/02/09 12:20:36;;;;;;;27.27;15.93;;;;;;;1.10;100.00;98567.53;4954717;57;1138683;-78
2024/02/09 12:25:42;;;;;;;22.50;13.60;;;;;;;1.12;100.00;98564.36;4965410;57;1138697;-79
2024/02/09 13:15:15;;;;;;;16.17;10.55;;;;;;;1.23;100.00;98493.30;4985802;57;1138777;-79
2024/02/09 13:20:21;;;;;;;17.63;10.23;;;;;;;1.24;100.00;98507.98;5028719;57;1138741;-79
2024/02/09 13:25:35;;;;;;;17.17;9.37;;;;;;;1.25;100.00;98512.24;4949460;57;1138792;-79
2024/02/09 13:30:37;;;;;;;18.90;10.00;;;;;;;1.26;100.00;98502.19;4961528;56;1137067;-79
2024/02/09 13:35:43;;;;;;;31.43;15.63;;;;;;;1.31;100.00;98497.50;4970119;57;1138947;-79
2024/02/09 13:40:48;;;;;;;19.47;10.90;;;;;;;1.38;100.00;98497.39;5005168;57;1138644;-79
2024/02/09 13:45:56;;;;;;;22.85;13.85;;;;;;;1.41;100.00;98499.31;4965215;57;1138576;-79
2024/02/09 13:51:01;;;;;;;40.80;17.47;;;;;;;1.45;100.00;98499.09;4983482;57;1138807;-79
2024/02/09 13:56:07;;;;;;;31.50;18.47;;;;;;;1.46;100.00;98492.95;4954584;57;1138791;-79
2024/02/09 14:01:15;;;;;;;20.12;11.70;;;;;;;1.46;100.00;98475.55;4968878;57;1138926;-79
2024/02/09 14:06:20;;;;;;;44.90;25.00;;;;;;;1.47;100.00;98474.61;5057714;56;1138709;-80
2024/02/09 14:11:27;;;;;;;26.30;16.70;;;;;;;1.48;100.00;98472.83;4995241;56;1138874;-81
2024/02/09 14:16:35;;;;;;;23.70;14.97;;;;;;;1.49;100.00;98471.42;4997192;56;1138593;-81
2024/02/09 14:21:40;;;;;;;14.40;9.10;;;;;;;1.49;100.00;98464.08;5042849;57;1138692;-83
2024/02/09 14:26:50;;;;;;;23.20;12.63;;;;;;;1.49;100.00;98470.13;4937611;57;1137163;-80
2024/02/09 14:31:53;;;;;;;26.30;15.73;;;;;;;1.48;100.00;98460.64;4973328;56;1138851;-79
2024/02/09 14:36:58;;;;;;;18.63;12.03;;;;;;;1.50;100.00;98455.33;5019888;57;1138781;-80
2024/02/09 14:42:11;;;;;;;17.00;10.80;;;;;;;1.51;100.00;98453.91;5007224;57;1138805;-82
2024/02/09 14:47:17;;;;;;;17.23;11.10;;;;;;;1.55;100.00;98463.61;4973631;57;1138782;-80
2024/02/09 14:52:24;;;;;;;13.77;9.77;;;;;;;1.56;100.00;98465.27;4927412;57;1138639;-82
2024/02/09 14:57:30;;;;;;;26.33;17.10;;;;;;;1.57;100.00;98460.42;4937846;57;1169856;-81
2024/02/09 15:02:35;;;;;;;18.17;11.90;;;;;;;1.58;100.00;98455.11;4940696;56;1138636;-82
2024/02/09 15:07:44;;;;;;;28.13;18.27;;;;;;;1.59;100.00;98452.86;4959292;57;1138415;-79
2024/02/09 15:12:49;;;;;;;17.47;11.23;;;;;;;1.63;100.00;98456.08;4956151;57;1139141;-77
2024/02/09 15:17:56;;;;;;;18.77;12.67;;;;;;;1.64;100.00;98461.65;4930393;57;1138810;-79
2024/02/09 15:23:02;;;;;;;11.80;9.73;;;;;;;1.66;100.00;98460.59;5031297;57;1138692;-77
2024/02/09 15:28:08;;;;;;;16.50;9.30;;;;;;;1.65;100.00;98456.33;5055187;57;1136664;-79
2024/02/09 15:33:13;;;;;;;16.25;10.13;;;;;;;1.63;100.00;98461.28;5038352;57;1136629;-77
2024/02/09 15:38:19;;;;;;;27.48;17.35;;;;;;;1.67;100.00;98460.13;4953183;59;1139077;-78
2024/02/09 15:43:24;;;;;;;19.67;12.23;;;;;;;1.67;100.00;98466.17;4834928;59;1138928;-78
2024/02/09 15:48:30;;;;;;;17.10;10.70;;;;;;;1.69;100.00;98467.33;4839550;58;1139481;-79
2024/02/09 15:53:36;;;;;;;15.73;10.37;;;;;;;1.72;100.00;98470.55;4887788;58;1138667;-79
2024/02/09 15:58:42;;;;;;;19.67;9.90;;;;;;;1.71;100.00;98464.97;4844610;58;1138673;-80
2024/02/09 16:03:54;;;;;;;23.47;12.70;;;;;;;1.70;100.00;98462.48;4936898;58;1136311;-81
2024/02/09 16:08:59;;;;;;;42.83;24.47;;;;;;;1.71;100.00;98467.58;4994542;58;1138964;-79
2024/02/09 16:14:05;;;;;;;22.70;12.97;;;;;;;1.71;100.00;98468.88;4871402;58;1138499;-81
2024/02/09 16:19:11;;;;;;;28.70;15.43;;;;;;;1.69;100.00;98464.72;4762554;59;1138887;-84
2024/02/09 16:24:16;;;;;;;23.10;14.97;;;;;;;1.70;100.00;98473.73;4866191;57;1139760;-80
2024/02/09 16:29:23;;;;;;;23.90;15.03;;;;;;;1.72;100.00;98476.23;4976015;57;1138791;-84
2024/02/09 16:34:29;;;;;;;20.50;14.40;;;;;;;1.73;100.00;98477.42;4894868;57;1139067;-81
2024/02/09 16:39:36;;;;;;;25.37;15.83;;;;;;;1.74;100.00;98478.25;4983090;57;1234406;-83
2024/02/09 16:44:41;;;;;;;29.57;18.67;;;;;;;1.74;100.00;98471.73;4908732;58;1228191;-78
2024/02/09 16:49:51;;;;;;;29.73;16.87;;;;;;;1.76;100.00;98477.20;4988418;57;1138474;-83
2024/02/09 16:54:57;;;;;;;38.13;20.73;;;;;;;1.75;100.00;98479.92;5006150;58;1138403;-84
2024/02/09 17:00:04;;;;;;;37.07;21.33;;;;;;;1.79;100.00;98477.92;4910409;58;1138720;-82
2024/02/09 17:05:10;;;;;;;31.57;19.67;;;;;;;1.79;100.00;98476.15;4928783;58;1138820;-80
2024/02/09 17:10:15;;;;;;;37.70;21.43;;;;;;;1.73;100.00;98461.78;4902420;58;1138998;-79
2024/02/09 17:15:21;;;;;;;32.03;21.65;;;;;;;1.80;100.00;98470.47;4920077;58;1138521;-76
2024/02/09 17:20:27;;;;;;;39.93;21.97;;;;;;;1.79;100.00;98470.11;4865431;58;1138826;-80
2024/02/09 17:25:33;;;;;;;35.50;20.60;;;;;;;1.79;100.00;98449.25;4836590;58;1138735;-83
2024/02/09 17:30:40;;;;;;;32.57;18.83;;;;;;;1.81;100.00;98458.62;4882961;58;1248113;-81
2024/02/09 17:35:46;;;;;;;39.20;21.50;;;;;;;1.85;100.00;98456.59;4885429;57;1139119;-83
2024/02/09 17:40:51;;;;;;;35.47;19.80;;;;;;;1.85;100.00;98456.59;4828720;58;1139026;-81
2024/02/09 17:45:57;;;;;;;43.47;24.20;;;;;;;1.85;100.00;98452.22;4828761;58;1138806;-82
2024/02/09 17:51:05;;;;;;;41.60;22.93;;;;;;;1.88;100.00;98457.20;4858328;58;1139255;-84
2024/02/09 17:56:16;;;;;;;44.87;23.93;;;;;;;1.89;100.00;98447.14;4866728;58;1138934;-77
2024/02/09 18:01:18;;;;;;;59.73;28.53;;;;;;;1.91;100.00;98452.23;4977664;58;1139172;-79
2024/02/09 18:06:29;;;;;;;38.43;22.80;;;;;;;1.94;100.00;98452.02;4945859;58;1138664;-79
2024/02/09 18:11:31;;;;;;;34.57;21.93;;;;;;;1.93;100.00;98449.88;4961445;58;1138569;-80
2024/02/09 18:16:36;;;;;;;38.57;22.80;;;;;;;1.92;100.00;98456.51;4962823;58;1138799;-82
2024/02/09 18:21:42;;;;;;;45.03;22.67;;;;;;;1.92;100.00;98452.59;4944961;59;1138983;-80
2024/02/09 18:26:48;;;;;;;55.23;26.57;;;;;;;1.95;100.00;98445.39;4989356;58;1138691;-82
2024/02/09 18:31:53;;;;;;;63.77;28.90;;;;;;;1.97;100.00;98447.41;5021994;58;1138789;-78
2024/02/09 18:36:59;;;;;;;57.83;28.60;;;;;;;2.02;100.00;98452.25;5004637;58;1138632;-78
2024/02/09 18:42:05;;;;;;;53.17;29.47;;;;;;;2.03;100.00;98454.74;4755779;59;1138741;-83
2024/02/09 18:47:10;;;;;;;45.77;27.27;;;;;;;2.06;100.00;98454.99;4823582;59;1138753;-81
2024/02/09 18:52:17;;;;;;;58.87;28.87;;;;;;;2.09;100.00;98456.07;4895133;59;1139003;-83
2024/02/09 18:57:22;;;;;;;61.40;31.37;;;;;;;2.11;100.00;98451.58;4923821;59;1138548;-80
2024/02/09 19:02:28;;;;;;;57.03;30.90;;;;;;;2.13;100.00;98462.72;4834152;59;1138957;-79
2024/02/09 19:07:34;;;;;;;58.23;29.80;;;;;;;2.16;100.00;98461.16;4905402;58;1138754;-80
2024/02/09 19:12:43;;;;;;;49.03;26.97;;;;;;;2.19;100.00;98467.92;5032919;57;1138976;-84
2024/02/09 19:17:48;;;;;;;64.37;30.50;;;;;;;2.21;100.00;98452.99;4926536;57;1138991;-83
2024/02/09 19:22:55;;;;;;;58.40;27.95;;;;;;;2.22;100.00;98443.75;4901548;58;1138869;-82
2024/02/09 19:28:02;;;;;;;65.17;31.47;;;;;;;2.23;100.00;98428.94;4923443;58;1138598;-82
2024/02/09 19:33:12;;;;;;;65.20;31.63;;;;;;;2.22;100.00;98412.46;4881404;57;1138743;-84
2024/02/09 19:38:17;;;;;;;61.08;32.67;;;;;;;2.20;100.00;98422.17;4803571;58;1138813;-83
2024/02/09 19:43:22;;;;;;;60.30;30.33;;;;;;;2.24;100.00;98421.00;4866285;59;1139280;-77
2024/02/09 19:48:32;;;;;;;61.63;30.63;;;;;;;2.25;100.00;98425.27;4976194;58;1138555;-82
2024/02/09 19:53:38;;;;;;;67.32;31.62;;;;;;;2.25;100.00;98427.88;4755718;60;1138834;-82
2024/02/09 19:58:45;;;;;;;59.47;32.47;;;;;;;2.28;100.00;98439.38;4851191;59;1138940;-81
2024/02/09 20:03:50;;;;;;;61.97;29.77;;;;;;;2.31;100.00;98446.12;4894274;58;1139058;-81
2024/02/09 20:08:56;;;;;;;72.73;31.80;;;;;;;2.32;100.00;98447.78;4905378;58;1138856;-78
2024/02/09 20:14:05;;;;;;;78.67;34.10;;;;;;;2.32;100.00;98451.22;4815941;58;1138626;-78
2024/02/09 20:19:12;;;;;;;69.27;32.70;;;;;;;2.33;100.00;98447.66;4788727;59;1138686;-80
2024/02/09 20:24:18;;;;;;;70.70;34.30;;;;;;;2.31;100.00;98439.13;4878689;58;1138902;-79
2024/02/09 20:29:27;;;;;;;71.80;31.03;;;;;;;2.35;100.00;98443.16;4911808;58;1138875;-78
2024/02/09 20:34:34;;;;;;;70.30;31.85;;;;;;;2.37;100.00;98436.05;4887749;58;1139002;-82
2024/02/09 20:39:43;;;;;;;68.47;32.20;;;;;;;2.39;100.00;98422.89;4895484;58;1139054;-80
2024/02/09 20:44:47;;;;;;;79.43;39.13;;;;;;;2.40;100.00;98425.86;4855775;58;1139032;-81
2024/02/09 20:49:58;;;;;;;73.43;34.50;;;;;;;2.43;100.00;98432.16;4807362;58;1138702;-81
2024/02/09 20:55:02;;;;;;;58.83;29.43;;;;;;;2.43;100.00;98438.20;4850805;59;1138843;-82
2024/02/09 21:00:09;;;;;;;66.33;31.07;;;;;;;2.43;100.00;98436.89;4817281;59;1139159;-80
2024/02/09 21:05:14;;;;;;;71.00;32.93;;;;;;;2.44;100.00;98441.13;4889865;58;1139293;-78
2024/02/09 21:10:23;;;;;;;72.10;31.43;;;;;;;2.46;100.00;98435.33;4853721;59;1169833;-79
2024/02/09 21:15:34;;;;;;;74.62;35.75;;;;;;;2.50;100.00;98450.75;4874970;58;1139062;-81
2024/02/09 21:20:40;;;;;;;75.83;36.75;;;;;;;2.52;100.00;98464.52;4932954;58;1138904;-79
2024/02/09 21:25:46;;;;;;;90.87;38.53;;;;;;;2.53;100.00;98461.78;4950785;57;1138986;-81
2024/02/09 21:30:54;;;;;;;67.77;31.63;;;;;;;2.56;100.00;98460.72;4939040;57;1138924;-81
2024/02/09 21:36:05;;;;;;;80.20;37.13;;;;;;;2.58;100.00;98461.44;4977358;57;1138452;-81
2024/02/09 21:41:06;;;;;;;81.30;34.63;;;;;;;2.58;100.00;98466.19;4960128;57;1138717;-82
2024/02/09 21:46:12;;;;;;;73.83;33.75;;;;;;;2.59;100.00;98466.54;4993633;56;1139112;-81
2024/02/09 21:51:19;;;;;;;74.82;36.25;;;;;;;2.59;100.00;98465.23;5073543;56;1138832;-81
2024/02/09 21:56:25;;;;;;;74.67;33.27;;;;;;;2.63;100.00;98467.94;4944180;56;1138710;-82
2024/02/09 22:01:31;;;;;;;60.98;31.60;;;;;;;2.67;100.00;98462.02;4852747;58;1138783;-82
2024/02/09 22:06:39;;;;;;;74.17;34.30;;;;;;;2.70;100.00;98464.39;4949367;58;1140584;-81
2024/02/09 22:11:48;;;;;;;74.97;34.37;;;;;;;2.75;100.00;98470.09;5003587;57;1141027;-81
2024/02/09 22:16:51;;;;;;;77.67;34.18;;;;;;;2.79;100.00;98475.41;4979565;57;1140880;-82
2024/02/09 22:21:59;;;;;;;90.50;35.30;;;;;;;2.80;100.00;98468.77;5047495;57;1140579;-81
2024/02/09 22:27:05;;;;;;;90.17;38.00;;;;;;;2.81;100.00;98466.98;5021986;57;1141160;-81
2024/02/09 22:32:11;;;;;;;96.97;40.77;;;;;;;2.85;100.00;98469.72;5070769;57;1141041;-81
2024/02/09 22:37:17;;;;;;;75.00;35.15;;;;;;;2.88;100.00;98464.26;5040918;57;1140709;-81
2024/02/09 22:42:22;;;;;;;73.30;36.17;;;;;;;2.90;100.00;98449.31;5027494;57;1140748;-82
2024/02/09 22:47:29;;;;;;;66.83;32.57;;;;;;;2.94;100.00;98458.53;4975508;57;1140850;-81
2024/02/09 22:52:35;;;;;;;68.50;31.80;;;;;;;2.96;100.00;98453.19;5046823;57;1140761;-81
2024/02/09 22:57:41;;;;;;;73.75;32.65;;;;;;;2.98;100.00;98461.73;5091093;57;1140919;-81
2024/02/09 23:02:50;;;;;;;68.70;34.37;;;;;;;3.01;100.00;98466.72;4967367;57;1141032;-81
2024/02/09 23:07:56;;;;;;;70.23;35.50;;;;;;;3.04;100.00;98470.41;5046194;57;1140870;-81
2024/02/09 23:13:01;;;;;;;86.80;37.60;;;;;;;3.09;100.00;98463.02;5063423;57;1141309;-82
2024/02/09 23:18:09;;;;;;;78.30;34.67;;;;;;;3.11;100.00;98464.55;5077268;57;1141223;-81
2024/02/09 23:23:15;;;;;;;72.87;34.13;;;;;;;3.12;100.00;98461.47;4957946;57;1141084;-81
2024/02/09 23:28:26;;;;;;;82.00;36.70;;;;;;;3.13;100.00;98451.38;4895144;56;1141124;-82
2024/02/09 23:33:28;;;;;;;74.90;37.65;;;;;;;3.14;100.00;98433.45;5028486;58;1140942;-81
2024/02/09 23:38:35;;;;;;;70.83;32.33;;;;;;;3.14;100.00;98441.28;5015656;57;1140793;-81
2024/02/09 23:43:41;;;;;;;80.23;35.10;;;;;;;3.16;100.00;98453.27;5025484;56;1140892;-82
2024/02/09 23:48:46;;;;;;;73.97;34.57;;;;;;;3.17;100.00;98451.49;4963064;57;1140960;-82
2024/02/09 23:53:53;;;;;;;86.90;36.93;;;;;;;3.21;100.00;98452.08;4992500;58;1140665;-81
2024/02/09 23:58:59;;;;;;;90.63;36.37;;;;;;;3.23;100.00;98441.01;5000278;57;1140833;-82
